createdAt,value
2022-07-30T00:00:54.526Z,6.05
2022-07-30T00:03:22.190Z,5.22
2022-07-30T00:05:49.976Z,5.00
2022-07-30T00:08:17.521Z,5.63
2022-07-30T00:10:45.070Z,6.80
2022-07-30T00:13:14.269Z,5.25
2022-07-30T00:15:43.384Z,5.68
2022-07-30T00:18:11.913Z,5.65
2022-07-30T00:20:43.645Z,5.35
2022-07-30T00:23:11.944Z,5.40
2022-07-30T00:25:39.461Z,5.75
2022-07-30T00:28:07.080Z,5.78
2022-07-30T00:30:34.681Z,5.45
2022-07-30T00:33:03.593Z,5.53
2022-07-30T00:35:31.276Z,5.47
2022-07-30T00:37:58.830Z,4.70
2022-07-30T00:40:26.555Z,6.43
2022-07-30T00:42:54.083Z,5.97
2022-07-30T00:45:21.645Z,5.82
2022-07-30T00:47:49.276Z,6.03
2022-07-30T00:50:18.197Z,7.22
2022-07-30T00:52:46.812Z,6.25
2022-07-30T00:55:15.805Z,5.75
2022-07-30T00:57:43.850Z,6.18
2022-07-30T01:00:21.862Z,6.38
2022-07-30T01:02:49.402Z,6.47
2022-07-30T01:05:18.544Z,6.32
2022-07-30T01:07:46.207Z,6.68
2022-07-30T01:10:15.673Z,6.07
2022-07-30T01:12:44.899Z,6.95
2022-07-30T01:15:12.820Z,6.07
2022-07-30T01:17:40.809Z,6.45
2022-07-30T01:20:12.702Z,6.07
2022-07-30T01:22:58.594Z,6.13
2022-07-30T01:25:46.989Z,6.75
2022-07-30T01:28:18.828Z,6.80
2022-07-30T01:30:47.193Z,6.30
2022-07-30T01:33:19.693Z,6.22
2022-07-30T01:35:49.224Z,6.03
2022-07-30T01:38:21.705Z,6.45
2022-07-30T01:40:52.196Z,6.70
2022-07-30T01:43:21.978Z,6.70
2022-07-30T01:45:51.239Z,6.55
2022-07-30T01:48:22.433Z,6.03
2022-07-30T01:50:53.208Z,6.43
2022-07-30T01:53:24.968Z,5.32
2022-07-30T01:55:55.771Z,6.30
2022-07-30T01:58:27.734Z,6.20
2022-07-30T02:00:58.731Z,6.85
2022-07-30T02:03:29.546Z,6.45
2022-07-30T02:06:01.475Z,6.20
2022-07-30T02:08:37.432Z,7.00
2022-07-30T02:11:09.599Z,6.68
2022-07-30T02:13:45.795Z,6.88
2022-07-30T02:16:18.385Z,7.22
2022-07-30T02:18:56.966Z,7.30
2022-07-30T02:21:36.388Z,6.75
2022-07-30T02:24:07.532Z,9.10
2022-07-30T02:26:39.051Z,6.65
2022-07-30T02:29:11.442Z,6.55
2022-07-30T02:31:41.591Z,6.47
2022-07-30T02:34:12.028Z,6.82
2022-07-30T02:36:40.629Z,6.40
2022-07-30T02:39:09.396Z,6.97
2022-07-30T02:41:40.038Z,7.32
2022-07-30T02:44:08.833Z,6.50
2022-07-30T02:46:38.820Z,6.38
2022-07-30T02:49:10.564Z,6.60
2022-07-30T02:51:38.933Z,6.88
2022-07-30T02:54:08.194Z,6.95
2022-07-30T02:56:38.089Z,7.40
2022-07-30T02:59:06.845Z,7.28
2022-07-30T03:01:36.052Z,6.78
2022-07-30T03:04:06.096Z,6.60
2022-07-30T03:06:35.401Z,7.60
2022-07-30T03:09:04.480Z,6.88
2022-07-30T03:11:32.709Z,6.88
2022-07-30T03:14:01.787Z,6.95
2022-07-30T03:16:30.957Z,6.70
2022-07-30T03:19:02.261Z,6.40
2022-07-30T03:21:36.504Z,6.10
2022-07-30T03:24:07.486Z,8.15
2022-07-30T03:26:37.531Z,7.15
2022-07-30T03:29:08.580Z,6.68
2022-07-30T03:31:37.882Z,7.80
2022-07-30T03:34:06.940Z,7.28
2022-07-30T03:36:36.623Z,7.50
2022-07-30T03:39:05.149Z,6.85
2022-07-30T03:41:33.529Z,7.70
2022-07-30T03:44:02.020Z,7.07
2022-07-30T03:46:32.477Z,7.78
2022-07-30T03:49:01.143Z,7.40
2022-07-30T03:51:32.777Z,7.43
2022-07-30T03:54:01.395Z,7.47
2022-07-30T03:56:29.288Z,8.02
2022-07-30T03:58:57.118Z,8.52
2022-07-30T04:01:25.871Z,8.45
2022-07-30T04:03:55.936Z,7.95
2022-07-30T04:06:23.503Z,7.80
2022-07-30T04:08:51.034Z,8.70
2022-07-30T04:11:18.528Z,9.00
2022-07-30T04:14:06.317Z,8.52
2022-07-30T04:16:42.341Z,9.45
2022-07-30T04:19:17.379Z,9.20
2022-07-30T04:21:47.557Z,9.38
2022-07-30T04:24:16.889Z,9.27
2022-07-30T04:26:45.641Z,9.63
2022-07-30T04:29:18.280Z,9.27
2022-07-30T04:31:47.870Z,9.80
2022-07-30T04:34:16.844Z,10.63
2022-07-30T04:36:44.908Z,10.40
2022-07-30T04:39:12.953Z,10.20
2022-07-30T04:41:48.536Z,10.85
2022-07-30T04:44:17.922Z,10.13
2022-07-30T04:46:45.783Z,10.55
2022-07-30T04:49:15.004Z,10.70
2022-07-30T04:51:45.817Z,10.93
2022-07-30T04:54:16.199Z,11.27
2022-07-30T04:56:53.086Z,10.73
2022-07-30T04:59:28.986Z,11.15
2022-07-30T05:01:59.773Z,11.43
2022-07-30T05:04:29.402Z,11.02
2022-07-30T05:06:59.382Z,11.05
2022-07-30T05:09:27.555Z,11.57
2022-07-30T05:11:56.525Z,11.30
2022-07-30T05:14:26.786Z,12.45
2022-07-30T05:16:55.781Z,12.63
2022-07-30T05:19:25.081Z,12.52
2022-07-30T05:21:52.667Z,12.43
2022-07-30T05:24:21.941Z,13.43
2022-07-30T05:26:49.512Z,12.75
2022-07-30T05:29:20.061Z,13.10
2022-07-30T05:31:48.296Z,12.38
2022-07-30T05:34:15.989Z,12.82
2022-07-30T05:36:44.498Z,14.05
2022-07-30T05:39:12.183Z,14.80
2022-07-30T05:41:41.104Z,13.43
2022-07-30T05:44:09.019Z,14.45
2022-07-30T05:46:36.649Z,14.65
2022-07-30T05:49:05.481Z,15.73
2022-07-30T05:51:33.078Z,16.15
2022-07-30T05:54:00.596Z,14.23
2022-07-30T05:56:28.148Z,15.13
2022-07-30T05:58:57.028Z,15.80
2022-07-30T06:01:24.618Z,19.17
2022-07-30T06:03:52.161Z,20.85
2022-07-30T06:06:22.887Z,22.50
2022-07-30T06:08:51.247Z,20.88
2022-07-30T06:11:18.946Z,20.92
2022-07-30T06:13:46.478Z,21.10
2022-07-30T06:16:15.454Z,20.13
2022-07-30T06:18:43.102Z,19.55
2022-07-30T06:21:10.877Z,18.75
2022-07-30T06:23:38.389Z,20.98
2022-07-30T06:26:06.638Z,21.67
2022-07-30T06:28:38.140Z,19.55
2022-07-30T06:31:07.250Z,22.88
2022-07-30T06:33:36.160Z,21.02
2022-07-30T06:36:03.784Z,23.48
2022-07-30T06:38:31.361Z,21.75
2022-07-30T06:41:03.048Z,22.90
2022-07-30T06:43:32.532Z,23.00
2022-07-30T06:46:00.290Z,22.38
2022-07-30T06:48:28.073Z,21.35
2022-07-30T06:50:56.950Z,22.70
2022-07-30T06:53:24.445Z,21.50
2022-07-30T06:55:52.956Z,21.15
2022-07-30T06:58:26.182Z,20.47
2022-07-30T07:00:53.799Z,19.45
2022-07-30T07:03:21.337Z,20.75
2022-07-30T07:05:48.864Z,21.52
2022-07-30T07:08:18.426Z,24.35
2022-07-30T07:10:45.938Z,24.33
2022-07-30T07:13:13.562Z,23.67
2022-07-30T07:15:41.123Z,25.30
2022-07-30T07:18:08.893Z,27.52
2022-07-30T07:20:36.680Z,29.40
2022-07-30T07:23:08.940Z,28.65
2022-07-30T07:25:41.301Z,28.70
2022-07-30T07:28:12.062Z,27.15
2022-07-30T07:30:41.117Z,27.85
2022-07-30T07:33:08.756Z,27.45
2022-07-30T07:35:45.467Z,27.52
2022-07-30T07:38:17.706Z,28.33
2022-07-30T07:40:47.059Z,28.08
2022-07-30T07:43:14.673Z,27.00
2022-07-30T07:45:43.010Z,27.00
2022-07-30T07:48:11.075Z,27.15
2022-07-30T07:50:38.868Z,26.40
2022-07-30T07:53:07.179Z,27.58
2022-07-30T07:55:34.737Z,26.63
2022-07-30T07:58:04.183Z,26.80
2022-07-30T08:00:32.080Z,27.77
2022-07-30T08:02:59.642Z,29.55
2022-07-30T08:05:56.820Z,30.77
2022-07-30T08:08:14.952Z,31.45
2022-07-30T08:10:42.503Z,32.50
2022-07-30T08:13:49.061Z,34.20
2022-07-30T08:15:59.446Z,33.35
2022-07-30T08:18:26.976Z,33.88
2022-07-30T08:20:54.617Z,34.13
2022-07-30T08:23:23.354Z,36.72
2022-07-30T08:25:51.053Z,39.15
2022-07-30T08:28:35.528Z,38.50
2022-07-30T08:31:04.737Z,40.22
2022-07-30T08:33:32.332Z,42.10
2022-07-30T08:36:09.178Z,44.17
2022-07-30T08:38:38.060Z,38.15
2022-07-30T08:41:05.665Z,38.50
2022-07-30T08:43:36.938Z,40.05
2022-07-30T08:46:09.707Z,37.22
2022-07-30T08:48:37.954Z,37.42
2022-07-30T08:51:05.755Z,37.83
2022-07-30T08:53:34.279Z,36.75
2022-07-30T08:56:01.895Z,33.88
2022-07-30T08:58:31.096Z,32.58
2022-07-30T09:01:00.040Z,35.63
2022-07-30T09:03:27.729Z,33.58
2022-07-30T09:05:55.287Z,32.03
2022-07-30T09:08:23.053Z,28.58
2022-07-30T09:10:53.271Z,31.10
2022-07-30T09:13:25.797Z,31.67
2022-07-30T09:15:53.862Z,27.77
2022-07-30T09:18:30.949Z,27.27
2022-07-30T09:21:00.534Z,28.85
2022-07-30T09:23:28.267Z,26.30
2022-07-30T09:26:00.809Z,25.85
2022-07-30T09:28:30.608Z,26.17
2022-07-30T09:30:58.253Z,25.95
2022-07-30T09:33:38.712Z,24.75
2022-07-30T09:36:09.596Z,24.40
2022-07-30T09:38:46.204Z,23.15
2022-07-30T09:41:36.216Z,22.10
2022-07-30T09:44:05.058Z,23.05
2022-07-30T09:46:42.375Z,22.17
2022-07-30T09:49:16.892Z,20.65
2022-07-30T09:54:25.530Z,22.77
2022-07-30T09:57:07.403Z,19.00
2022-07-30T09:59:53.675Z,18.60
2022-07-30T10:02:22.674Z,20.33
2022-07-30T10:04:55.925Z,18.58
2022-07-30T10:07:25.677Z,17.38
2022-07-30T10:09:54.171Z,18.00
2022-07-30T10:12:24.137Z,15.98
2022-07-30T10:14:54.702Z,15.45
2022-07-30T10:17:23.559Z,14.18
2022-07-30T10:19:53.135Z,15.07
2022-07-30T10:22:23.739Z,12.63
2022-07-30T10:24:54.572Z,10.10
2022-07-30T10:27:23.352Z,11.43
2022-07-30T10:29:51.479Z,10.95
2022-07-30T10:32:20.246Z,8.90
2022-07-30T10:34:59.380Z,8.35
2022-07-30T10:37:31.861Z,7.20
2022-07-30T10:40:06.961Z,8.57
2022-07-30T10:42:51.921Z,8.52
2022-07-30T10:45:22.916Z,8.20
2022-07-30T10:47:52.548Z,7.30
2022-07-30T10:50:22.710Z,7.50
2022-07-30T10:52:54.053Z,6.28
2022-07-30T10:55:36.968Z,6.40
2022-07-30T10:58:08.751Z,8.23
2022-07-30T11:00:58.408Z,9.55
2022-07-30T11:03:40.734Z,9.32
2022-07-30T11:06:29.067Z,9.75
2022-07-30T11:08:57.128Z,10.88
2022-07-30T11:12:01.625Z,10.55
2022-07-30T11:14:57.145Z,13.70
2022-07-30T11:17:25.015Z,10.93
2022-07-30T11:20:20.933Z,11.30
2022-07-30T11:22:51.096Z,11.75
2022-07-30T11:25:50.967Z,13.10
2022-07-30T11:28:40.322Z,9.90
2022-07-30T11:31:30.688Z,7.90
2022-07-30T11:34:30.517Z,8.82
2022-07-30T11:37:18.093Z,7.93
2022-07-30T11:40:07.946Z,8.35
2022-07-30T11:42:37.420Z,8.50
2022-07-30T11:45:27.037Z,10.43
2022-07-30T11:47:56.847Z,11.27
2022-07-30T11:50:26.640Z,13.93
2022-07-30T11:52:57.450Z,12.68
2022-07-30T11:55:27.535Z,8.60
2022-07-30T11:57:56.031Z,7.38
2022-07-30T12:00:24.148Z,8.80
2022-07-30T12:02:51.910Z,10.30
2022-07-30T12:05:26.612Z,15.38
2022-07-30T12:07:59.223Z,7.50
2022-07-30T12:10:27.509Z,7.22
2022-07-30T12:13:08.206Z,6.25
2022-07-30T12:15:37.689Z,6.40
2022-07-30T12:18:25.505Z,7.05
2022-07-30T12:21:00.604Z,8.25
2022-07-30T12:23:31.127Z,5.60
2022-07-30T12:25:59.590Z,4.93
2022-07-30T12:28:29.196Z,3.83
2022-07-30T12:30:57.986Z,3.50
2022-07-30T12:33:26.149Z,3.10
2022-07-30T12:35:55.589Z,2.90
2022-07-30T12:38:24.865Z,3.60
2022-07-30T12:40:58.698Z,3.33
2022-07-30T12:43:49.788Z,3.65
2022-07-30T12:46:19.315Z,4.05
2022-07-30T12:48:51.619Z,3.63
2022-07-30T12:51:20.258Z,3.40
2022-07-30T12:53:48.723Z,3.00
2022-07-30T12:56:20.495Z,2.80
2022-07-30T12:58:48.615Z,2.88
2022-07-30T13:01:17.089Z,3.05
2022-07-30T13:03:45.423Z,3.25
2022-07-30T13:06:17.763Z,3.45
2022-07-30T13:08:48.608Z,3.30
2022-07-30T13:11:18.725Z,3.33
2022-07-30T13:13:46.678Z,4.68
2022-07-30T13:16:15.004Z,2.58
2022-07-30T13:18:42.755Z,3.80
2022-07-30T13:21:11.225Z,3.72
2022-07-30T13:23:40.157Z,3.30
2022-07-30T13:26:09.394Z,2.63
2022-07-30T13:28:38.837Z,2.55
2022-07-30T13:31:07.543Z,3.58
2022-07-30T13:33:35.723Z,3.10
2022-07-30T13:36:03.743Z,4.78
2022-07-30T13:38:31.253Z,5.32
2022-07-30T13:41:02.416Z,6.93
2022-07-30T13:43:33.557Z,26.75
2022-07-30T13:46:03.892Z,11.32
2022-07-30T13:48:31.634Z,6.85
2022-07-30T13:51:00.749Z,3.35
2022-07-30T13:53:28.484Z,14.45
2022-07-30T13:55:56.546Z,2.72
2022-07-30T13:58:24.074Z,18.13
2022-07-30T14:00:51.686Z,3.70
2022-07-30T14:03:20.657Z,3.40
2022-07-30T14:05:48.835Z,3.55
2022-07-30T14:08:16.397Z,6.07
2022-07-30T14:10:44.062Z,4.90
2022-07-30T14:13:19.113Z,4.95
2022-07-30T14:15:49.084Z,12.63
2022-07-30T14:18:16.880Z,21.67
2022-07-30T14:20:48.767Z,13.45
2022-07-30T14:23:16.856Z,121.78
2022-07-30T14:25:44.738Z,11.45
2022-07-30T14:28:12.435Z,24.80
2022-07-30T14:30:40.017Z,15.35
2022-07-30T14:33:08.189Z,30.40
2022-07-30T14:35:35.765Z,16.02
2022-07-30T14:38:05.757Z,7.40
2022-07-30T14:40:33.297Z,10.48
2022-07-30T14:43:00.840Z,18.58
2022-07-30T14:45:28.695Z,5.63
2022-07-30T14:47:56.583Z,3.55
2022-07-30T14:50:24.212Z,3.95
2022-07-30T14:52:51.988Z,2.88
2022-07-30T14:55:20.898Z,3.10
2022-07-30T14:57:48.563Z,4.25
2022-07-30T15:00:16.867Z,4.53
2022-07-30T15:02:44.509Z,3.83
2022-07-30T15:05:12.106Z,4.88
2022-07-30T15:07:39.741Z,6.78
2022-07-30T15:10:08.380Z,4.40
2022-07-30T15:12:37.298Z,2.95
2022-07-30T15:15:07.803Z,11.45
2022-07-30T15:17:37.471Z,2.95
2022-07-30T15:20:07.742Z,3.67
2022-07-30T15:22:35.428Z,2.47
2022-07-30T15:25:03.157Z,2.53
2022-07-30T15:27:34.087Z,2.50
2022-07-30T15:30:04.777Z,2.90
2022-07-30T15:32:32.938Z,2.80
2022-07-30T15:35:00.946Z,2.53
2022-07-30T15:37:28.679Z,2.53
2022-07-30T15:40:02.315Z,2.83
2022-07-30T15:42:32.795Z,4.05
2022-07-30T15:45:17.139Z,2.75
2022-07-30T15:47:45.605Z,2.42
2022-07-30T15:50:13.345Z,2.30
2022-07-30T15:52:41.107Z,2.25
2022-07-30T15:55:09.404Z,2.45
2022-07-30T15:57:37.328Z,2.08
2022-07-30T16:00:08.705Z,2.10
2022-07-30T16:02:36.538Z,2.05
2022-07-30T16:05:08.525Z,2.17
2022-07-30T16:07:38.109Z,1.88
2022-07-30T16:10:06.750Z,2.58
2022-07-30T16:12:34.347Z,2.20
2022-07-30T16:15:01.978Z,3.45
2022-07-30T16:17:30.892Z,2.33
2022-07-30T16:19:58.481Z,2.50
2022-07-30T16:22:26.101Z,3.03
2022-07-30T16:24:53.695Z,2.60
2022-07-30T16:27:21.335Z,2.70
2022-07-30T16:29:48.887Z,2.60
2022-07-30T16:32:16.530Z,2.67
2022-07-30T16:34:45.914Z,2.38
2022-07-30T16:37:15.157Z,3.05
2022-07-30T16:39:42.682Z,2.65
2022-07-30T16:42:11.454Z,2.88
2022-07-30T16:44:39.256Z,4.22
2022-07-30T16:47:10.684Z,8.07
2022-07-30T16:49:40.849Z,4.68
2022-07-30T16:52:09.811Z,2.72
2022-07-30T16:54:37.507Z,3.00
2022-07-30T16:57:10.385Z,3.28
2022-07-30T16:59:38.365Z,5.72
2022-07-30T17:02:11.289Z,2.42
2022-07-30T17:04:38.976Z,2.70
2022-07-30T17:07:06.527Z,2.50
2022-07-30T17:09:36.715Z,2.92
2022-07-30T17:12:09.537Z,2.80
2022-07-30T17:14:39.603Z,3.65
2022-07-30T17:17:10.743Z,3.00
2022-07-30T17:19:41.059Z,2.83
2022-07-30T17:22:08.623Z,2.70
2022-07-30T17:24:37.690Z,2.85
2022-07-30T17:27:05.544Z,2.33
2022-07-30T17:29:33.050Z,2.60
2022-07-30T17:32:00.987Z,2.55
2022-07-30T17:34:28.816Z,2.50
2022-07-30T17:36:56.347Z,2.53
2022-07-30T17:40:19.283Z,2.60
2022-07-30T17:42:13.591Z,3.55
2022-07-30T17:44:42.815Z,2.65
2022-07-30T17:47:15.149Z,2.15
2022-07-30T17:49:44.214Z,2.47
2022-07-30T17:52:11.943Z,3.20
2022-07-30T17:54:39.504Z,3.25
2022-07-30T17:57:07.042Z,2.40
2022-07-30T17:59:36.069Z,2.50
2022-07-30T18:02:04.477Z,2.78
2022-07-30T18:04:34.417Z,2.40
2022-07-30T18:07:02.000Z,2.58
2022-07-30T18:09:31.128Z,2.17
2022-07-30T18:12:09.960Z,2.50
2022-07-30T18:14:39.007Z,3.63
2022-07-30T18:17:10.022Z,2.63
2022-07-30T18:19:40.909Z,2.00
2022-07-30T18:22:08.784Z,2.17
2022-07-30T18:24:40.269Z,2.72
2022-07-30T18:27:12.328Z,2.60
2022-07-30T18:29:41.827Z,2.50
2022-07-30T18:32:09.827Z,2.53
2022-07-30T18:35:19.045Z,2.40
2022-07-30T18:37:48.377Z,2.60
2022-07-30T18:40:23.743Z,2.60
2022-07-30T18:42:51.971Z,2.35
2022-07-30T18:45:22.652Z,2.60
2022-07-30T18:47:50.439Z,2.50
2022-07-30T18:50:18.508Z,2.25
2022-07-30T18:52:46.307Z,2.30
2022-07-30T18:55:13.926Z,2.30
2022-07-30T18:57:42.304Z,2.63
2022-07-30T19:00:34.366Z,2.80
2022-07-30T19:03:02.274Z,2.60
2022-07-30T19:05:29.973Z,2.70
2022-07-30T19:07:58.231Z,2.63
2022-07-30T19:10:26.993Z,2.50
2022-07-30T19:12:54.913Z,2.85
2022-07-30T19:15:23.086Z,2.75
2022-07-30T19:17:52.302Z,2.60
2022-07-30T19:20:23.317Z,4.68
2022-07-30T19:22:51.353Z,8.98
2022-07-30T19:25:20.865Z,3.13
2022-07-30T19:27:48.603Z,2.90
2022-07-30T19:30:16.316Z,3.15
2022-07-30T19:32:43.958Z,3.50
2022-07-30T19:35:13.381Z,4.13
2022-07-30T19:37:43.582Z,3.35
2022-07-30T19:40:12.873Z,2.70
2022-07-30T19:42:41.306Z,2.85
2022-07-30T19:45:12.075Z,2.70
2022-07-30T19:47:42.270Z,2.75
2022-07-30T19:50:11.426Z,2.70
2022-07-30T19:52:39.587Z,3.50
2022-07-30T19:55:17.332Z,3.00
2022-07-30T19:57:57.782Z,2.65
2022-07-30T20:00:26.548Z,2.70
2022-07-30T20:02:54.203Z,2.72
2022-07-30T20:05:24.869Z,3.15
2022-07-30T20:07:52.962Z,2.53
2022-07-30T20:10:22.009Z,2.45
2022-07-30T20:12:50.790Z,2.95
2022-07-30T20:15:18.334Z,2.95
2022-07-30T20:17:46.430Z,2.80
2022-07-30T20:20:15.070Z,2.70
2022-07-30T20:22:42.784Z,2.83
2022-07-30T20:25:10.976Z,2.78
2022-07-30T20:27:40.798Z,2.83
2022-07-30T20:30:10.321Z,2.97
2022-07-30T20:32:40.575Z,3.13
2022-07-30T20:35:13.997Z,2.92
2022-07-30T20:37:54.604Z,3.05
2022-07-30T20:40:23.682Z,2.85
2022-07-30T20:42:53.512Z,2.90
2022-07-30T20:45:24.782Z,2.70
2022-07-30T20:47:55.923Z,3.00
2022-07-30T20:50:30.207Z,2.95
2022-07-30T20:52:58.600Z,3.08
2022-07-30T20:55:26.140Z,2.88
2022-07-30T20:58:06.967Z,3.25
2022-07-30T21:00:41.720Z,2.90
2022-07-30T21:03:13.670Z,3.03
2022-07-30T21:05:42.989Z,3.20
2022-07-30T21:08:12.702Z,3.40
2022-07-30T21:10:44.486Z,2.63
2022-07-30T21:13:13.798Z,3.75
2022-07-30T21:15:45.726Z,3.60
2022-07-30T21:18:28.974Z,3.30
2022-07-30T21:20:56.915Z,3.45
2022-07-30T21:23:25.928Z,3.15
2022-07-30T21:26:03.036Z,3.17
2022-07-30T21:28:35.615Z,3.60
2022-07-30T21:31:06.832Z,3.47
2022-07-30T21:33:35.617Z,3.65
2022-07-30T21:36:03.434Z,3.47
2022-07-30T21:38:31.876Z,3.05
2022-07-30T21:41:00.147Z,3.47
2022-07-30T21:43:30.356Z,3.05
2022-07-30T21:45:59.453Z,3.33
2022-07-30T21:48:27.562Z,2.85
2022-07-30T21:50:56.783Z,3.00
2022-07-30T21:53:29.428Z,2.50
2022-07-30T21:55:57.876Z,2.60
2022-07-30T22:01:18.131Z,2.88
2022-07-30T22:04:02.894Z,2.88
2022-07-30T22:06:34.084Z,2.70
2022-07-30T22:09:03.917Z,3.10
2022-07-30T22:11:46.533Z,2.90
2022-07-30T22:14:16.106Z,2.80
2022-07-30T22:16:46.437Z,2.63
2022-07-30T22:19:14.859Z,2.30
2022-07-30T22:21:42.777Z,3.50
2022-07-30T22:24:29.509Z,2.55
2022-07-30T22:27:01.023Z,2.60
2022-07-30T22:29:33.791Z,2.80
2022-07-30T22:32:06.285Z,2.75
2022-07-30T22:34:35.656Z,2.53
2022-07-30T22:37:03.878Z,2.72
2022-07-30T22:39:32.068Z,2.70
2022-07-30T22:42:19.441Z,2.92
2022-07-30T22:44:48.280Z,2.72
2022-07-30T22:47:21.177Z,3.10
2022-07-30T22:49:56.323Z,2.78
2022-07-30T22:52:27.166Z,2.72
2022-07-30T22:55:02.048Z,3.00
2022-07-30T22:57:38.361Z,2.80
2022-07-30T23:00:12.053Z,2.80
2022-07-30T23:02:41.502Z,2.70
2022-07-30T23:05:10.318Z,2.80
2022-07-30T23:07:40.338Z,2.63
2022-07-30T23:10:12.305Z,2.83
2022-07-30T23:12:27.883Z,3.35
2022-07-30T23:12:48.328Z,2.85
2022-07-30T23:15:16.217Z,2.88
2022-07-30T23:17:45.313Z,2.67
2022-07-30T23:20:15.662Z,2.75
2022-07-30T23:22:43.705Z,2.65
2022-07-30T23:25:13.127Z,2.72
2022-07-30T23:27:41.721Z,2.50
2022-07-30T23:30:11.473Z,2.65
2022-07-30T23:32:39.843Z,3.22
2022-07-30T23:35:10.418Z,2.88
2022-07-30T23:37:49.067Z,2.70
2022-07-30T23:40:17.713Z,2.95
2022-07-30T23:42:45.397Z,3.10
2022-07-30T23:45:12.987Z,3.10
2022-07-30T23:48:02.018Z,3.33
2022-07-30T23:50:29.665Z,3.40
2022-07-30T23:52:57.202Z,3.53
2022-07-30T23:55:24.911Z,3.47
2022-07-30T23:57:53.190Z,3.10
